Time;durP1;ratioP1;P1;durP2;ratioP2;P2;SDS_P1;SDS_P2;PMS_P1;PMS_P2;Temp;Humidity;BMP_temperature;BMP_pressure;BME280_temperature;BME280_humidity;BME280_pressure;Samples;Min_cycle;Max_cycle;Signal;HPM_P1;HPM_P2
2022/05/16 00:02:09;;;;;;;5.15;2.60;;;18.40;99.90;;;;;;5056371;28;20163;-56
2022/05/16 00:04:39;;;;;;;6.00;3.00;;;;;;;;;;5056196;28;20147;-56
2022/05/16 00:07:05;;;;;;;6.40;3.42;;;;;;;;;;5056023;28;20095;-54
2022/05/16 00:09:31;;;;;;;5.80;3.30;;;;;;;;;;5054235;28;20097;-54
2022/05/16 00:11:57;;;;;;;6.13;3.05;;;;;;;;;;5056110;28;20492;-56
2022/05/16 00:14:23;;;;;;;6.78;3.40;;;18.10;99.90;;;;;;5055903;28;20420;-55
2022/05/16 00:16:50;;;;;;;6.07;3.30;;;18.10;99.90;;;;;;5056205;28;20087;-55
2022/05/16 00:19:16;;;;;;;5.07;3.03;;;;;;;;;;5056144;28;20040;-56
2022/05/16 00:21:42;;;;;;;4.22;3.45;;;;;;;;;;5055941;28;20040;-54
2022/05/16 00:24:08;;;;;;;5.53;3.58;;;;;;;;;;5055830;28;20053;-56
2022/05/16 00:26:34;;;;;;;7.25;4.03;;;;;;;;;;5055642;28;20086;-54
2022/05/16 00:29:00;;;;;;;7.78;3.80;;;;;;;;;;5055784;28;20100;-55
2022/05/16 00:31:26;;;;;;;4.38;3.30;;;;;;;;;;5055587;28;20024;-55
2022/05/16 00:33:53;;;;;;;5.05;3.33;;;;;;;;;;5055707;28;20427;-55
2022/05/16 00:36:18;;;;;;;5.90;3.53;;;17.30;99.90;;;;;;5055580;28;20157;-56
2022/05/16 00:38:44;;;;;;;4.40;3.15;;;17.00;99.90;;;;;;5055519;28;20067;-55
2022/05/16 00:41:10;;;;;;;7.35;3.38;;;16.90;99.90;;;;;;5055332;28;20060;-57
2022/05/16 00:43:46;;;;;;;5.50;3.60;;;16.90;99.90;;;;;;5055462;28;20025;-56
2022/05/16 00:46:14;;;;;;;5.95;3.25;;;16.90;99.90;;;;;;5055392;28;20052;-54
2022/05/16 00:48:40;;;;;;;7.25;4.10;;;17.00;99.90;;;;;;5055625;28;20388;-56
2022/05/16 00:51:11;;;;;;;6.07;3.13;;;16.90;99.90;;;;;;5055138;28;20025;-57
2022/05/16 00:53:37;;;;;;;6.35;3.47;;;17.00;99.90;;;;;;5055497;28;20112;-54
2022/05/16 00:56:03;;;;;;;5.20;3.33;;;16.90;99.90;;;;;;5055233;28;20749;-55
2022/05/16 00:58:29;;;;;;;8.30;4.00;;;16.60;99.90;;;;;;5053249;28;20123;-57
2022/05/16 01:00:54;;;;;;;6.68;3.00;;;16.60;99.90;;;;;;5055148;28;20116;-56
2022/05/16 01:06:07;;;;;;;8.48;3.42;;;16.40;99.90;;;;;;5055272;28;20040;-58
2022/05/16 01:08:39;;;;;;;4.13;3.67;;;16.40;99.90;;;;;;5054440;28;20489;-56
2022/05/16 01:11:11;;;;;;;3.97;3.03;;;16.40;99.90;;;;;;5055304;28;20029;-54
2022/05/16 01:13:37;;;;;;;4.00;3.30;;;16.40;99.90;;;;;;5055085;28;20423;-54
2022/05/16 01:16:04;;;;;;;6.57;3.80;;;16.40;99.90;;;;;;5054944;28;20036;-55
2022/05/16 01:18:29;;;;;;;5.00;3.70;;;16.50;99.90;;;;;;5054782;28;20481;-54
2022/05/16 01:21:22;;;;;;;8.05;3.55;;;16.30;99.90;;;;;;5054756;28;20035;-55
2022/05/16 01:24:10;;;;;;;10.15;3.47;;;16.40;99.90;;;;;;5054942;28;20377;-57
2022/05/16 01:26:37;;;;;;;4.40;2.88;;;16.40;99.90;;;;;;5054540;28;20362;-56
2022/05/16 01:29:04;;;;;;;4.28;3.00;;;16.60;99.90;;;;;;5054593;28;20532;-56
2022/05/16 01:31:30;;;;;;;7.72;3.22;;;16.20;99.90;;;;;;5054527;28;20021;-57
2022/05/16 01:33:56;;;;;;;5.20;3.20;;;;;;;;;;5054400;28;20383;-56
2022/05/16 01:36:23;;;;;;;4.82;3.45;;;15.80;99.90;;;;;;5054604;28;20031;-54
2022/05/16 01:38:51;;;;;;;4.20;3.47;;;15.90;99.90;;;;;;5054331;28;20055;-54
2022/05/16 01:41:21;;;;;;;8.77;3.97;;;16.00;99.90;;;;;;5054202;28;20040;-57
2022/05/16 01:43:58;;;;;;;6.90;3.28;;;16.00;99.90;;;;;;5054337;28;20115;-54
2022/05/16 01:46:37;;;;;;;4.75;3.50;;;16.10;99.90;;;;;;5018963;28;20029;-57
2022/05/16 01:49:04;;;;;;;5.63;3.65;;;15.90;99.90;;;;;;5052122;28;20116;-57
2022/05/16 01:51:30;;;;;;;5.10;3.70;;;15.80;99.90;;;;;;5051914;28;20041;-56
2022/05/16 01:53:56;;;;;;;5.38;3.50;;;16.00;99.90;;;;;;5051928;28;20175;-54
2022/05/16 01:56:22;;;;;;;5.22;3.33;;;16.30;99.90;;;;;;5052007;28;20074;-54
2022/05/16 01:58:49;;;;;;;3.55;3.13;;;16.40;99.90;;;;;;5052015;28;20029;-57
2022/05/16 02:01:15;;;;;;;5.47;3.67;;;16.60;99.90;;;;;;5051714;28;20127;-57
2022/05/16 02:03:44;;;;;;;5.88;3.92;;;16.70;99.90;;;;;;5051794;28;20590;-54
2022/05/16 02:06:10;;;;;;;5.15;3.50;;;16.80;99.90;;;;;;5051912;28;20029;-56
2022/05/16 02:08:37;;;;;;;5.65;3.38;;;16.80;99.90;;;;;;5051786;28;20039;-57
2022/05/16 02:11:03;;;;;;;7.70;3.80;;;16.80;99.90;;;;;;5051554;28;20619;-57
2022/05/16 02:13:29;;;;;;;4.97;3.22;;;16.90;99.90;;;;;;5051669;28;20063;-56
2022/05/16 02:15:55;;;;;;;5.22;3.65;;;16.90;99.90;;;;;;5051533;28;20025;-55
2022/05/16 02:18:22;;;;;;;4.70;3.55;;;16.90;99.90;;;;;;5035279;28;20030;-55
2022/05/16 02:20:47;;;;;;;8.13;4.00;;;16.90;99.90;;;;;;5032754;28;20398;-57
2022/05/16 02:25:58;;;;;;;4.93;3.20;;;16.80;99.90;;;;;;5034059;28;20377;-55
2022/05/16 02:28:24;;;;;;;4.07;3.30;;;16.70;99.90;;;;;;5048294;28;20108;-56
2022/05/16 02:30:51;;;;;;;5.28;3.55;;;16.60;99.90;;;;;;5033506;28;20545;-56
2022/05/16 02:33:18;;;;;;;7.78;3.47;;;16.40;99.90;;;;;;5033522;28;20025;-58
2022/05/16 02:35:45;;;;;;;6.95;3.72;;;16.30;99.90;;;;;;5033646;28;20030;-55
2022/05/16 02:38:12;;;;;;;4.13;3.28;;;16.20;99.90;;;;;;5033306;28;20488;-56
2022/05/16 02:40:38;;;;;;;4.32;3.30;;;16.30;99.90;;;;;;5033409;28;20103;-54
2022/05/16 02:43:04;;;;;;;5.82;3.42;;;16.00;99.90;;;;;;5033664;28;20033;-54
2022/05/16 02:45:32;;;;;;;4.03;3.45;;;16.00;99.90;;;;;;5033322;28;20032;-55
2022/05/16 02:47:58;;;;;;;7.00;3.78;;;15.90;99.90;;;;;;5033277;28;20033;-57
2022/05/16 02:50:25;;;;;;;9.10;3.45;;;15.90;99.90;;;;;;5033447;28;20033;-57
2022/05/16 02:52:52;;;;;;;4.20;3.25;;;15.90;99.90;;;;;;5048922;28;20053;-56
2022/05/16 02:55:19;;;;;;;4.45;3.55;;;15.60;99.90;;;;;;5053306;28;20025;-55
2022/05/16 02:57:45;;;;;;;4.88;3.50;;;;;;;;;;5053198;28;20096;-57
2022/05/16 03:00:12;;;;;;;6.15;3.63;;;;;;;;;;5053049;28;20029;-57
2022/05/16 03:02:39;;;;;;;5.28;3.55;;;;;;;;;;5053364;28;20063;-56
2022/05/16 03:05:06;;;;;;;5.85;3.47;;;;;;;;;;5051399;28;20037;-56
2022/05/16 03:07:32;;;;;;;6.30;3.58;;;15.10;99.90;;;;;;5053325;28;20111;-55
2022/05/16 03:09:58;;;;;;;6.30;3.80;;;15.10;99.90;;;;;;5053263;28;20021;-56
2022/05/16 03:12:24;;;;;;;5.88;3.70;;;14.90;99.90;;;;;;5053363;28;20029;-57
2022/05/16 03:14:50;;;;;;;7.47;3.83;;;14.70;99.90;;;;;;5053103;28;20369;-56
2022/05/16 03:17:15;;;;;;;5.60;4.07;;;14.90;99.90;;;;;;5053289;28;20437;-55
2022/05/16 03:19:42;;;;;;;5.68;3.78;;;15.00;99.90;;;;;;5053214;28;20079;-54
2022/05/16 03:22:08;;;;;;;4.57;3.63;;;15.00;99.90;;;;;;5053156;28;20040;-56
2022/05/16 03:24:34;;;;;;;4.10;3.67;;;15.00;99.90;;;;;;5053144;28;20380;-55
2022/05/16 03:27:00;;;;;;;4.95;3.63;;;15.20;99.90;;;;;;5053530;28;20036;-54
2022/05/16 03:29:26;;;;;;;4.22;3.47;;;15.20;99.90;;;;;;5052968;28;20465;-57
2022/05/16 03:31:53;;;;;;;6.78;3.85;;;15.20;99.90;;;;;;5054825;28;20096;-56
2022/05/16 03:34:19;;;;;;;19.02;5.10;;;15.20;99.90;;;;;;5056019;28;20033;-55
2022/05/16 03:36:45;;;;;;;12.00;4.43;;;15.50;99.90;;;;;;5056711;28;20021;-57
2022/05/16 03:41:56;;;;;;;16.98;4.57;;;15.90;99.90;;;;;;5056732;28;20393;-56
2022/05/16 03:44:23;;;;;;;7.75;4.05;;;16.00;99.90;;;;;;5056608;28;20059;-54
2022/05/16 03:46:49;;;;;;;6.35;3.88;;;15.90;99.90;;;;;;5056777;28;20100;-56
2022/05/16 03:49:15;;;;;;;4.60;3.75;;;15.50;99.90;;;;;;5056745;28;20032;-54
2022/05/16 03:51:41;;;;;;;4.38;3.42;;;15.60;99.90;;;;;;5055603;28;20045;-56
2022/05/16 03:54:07;;;;;;;5.65;3.80;;;15.20;99.90;;;;;;5055607;28;20037;-56
2022/05/16 03:56:33;;;;;;;5.47;3.72;;;15.00;99.90;;;;;;5056498;28;20381;-55
2022/05/16 03:58:59;;;;;;;5.85;3.85;;;14.90;99.90;;;;;;5056653;28;20029;-54
2022/05/16 04:01:27;;;;;;;5.55;4.22;;;14.90;99.90;;;;;;5055290;28;20634;-54
2022/05/16 04:03:53;;;;;;;5.63;4.28;;;14.90;99.90;;;;;;5054518;28;20025;-54
2022/05/16 04:06:19;;;;;;;5.35;4.07;;;15.20;99.90;;;;;;5053179;28;20510;-54
2022/05/16 04:08:46;;;;;;;4.30;3.67;;;15.10;99.90;;;;;;5055012;28;20052;-55
2022/05/16 04:11:16;;;;;;;4.68;4.18;;;15.30;99.90;;;;;;5055012;28;20037;-56
2022/05/16 04:24:59;;;;;;;6.80;4.35;;;15.30;99.90;;;;;;5054033;28;20399;-52
2022/05/16 04:27:26;;;;;;;4.53;4.05;;;16.20;99.90;;;;;;5045784;28;20496;-54
2022/05/16 04:29:52;;;;;;;6.05;4.00;;;16.10;99.90;;;;;;5044736;28;20134;-52
2022/05/16 04:32:18;;;;;;;8.15;4.20;;;16.30;99.90;;;;;;5047987;28;20033;-55
2022/05/16 04:34:44;;;;;;;5.97;4.20;;;16.40;99.90;;;;;;5049252;28;20037;-53
2022/05/16 04:37:09;;;;;;;4.68;4.00;;;16.50;99.90;;;;;;5053011;28;20033;-51
2022/05/16 04:39:35;;;;;;;6.55;4.40;;;16.80;99.90;;;;;;5065563;28;20042;-53
2022/05/16 04:44:45;;;;;;;6.55;4.70;;;16.80;99.90;;;;;;5050724;28;20087;-52
2022/05/16 04:47:12;;;;;;;8.15;4.63;;;16.70;99.90;;;;;;5048074;28;20037;-55
2022/05/16 04:49:38;;;;;;;7.57;5.03;;;16.90;99.90;;;;;;5045796;28;20037;-54
2022/05/16 04:52:04;;;;;;;11.90;5.28;;;17.10;99.90;;;;;;5045529;28;20392;-53
2022/05/16 04:54:30;;;;;;;6.95;5.45;;;17.10;99.90;;;;;;5052218;28;20480;-56
2022/05/16 04:56:55;;;;;;;6.63;5.78;;;16.90;99.90;;;;;;5055268;28;20033;-52
2022/05/16 04:59:22;;;;;;;6.15;5.55;;;16.90;99.90;;;;;;5044194;28;20025;-52
2022/05/16 05:01:48;;;;;;;6.53;5.43;;;16.90;99.90;;;;;;5046786;28;20389;-54
2022/05/16 05:04:15;;;;;;;6.70;5.50;;;17.00;99.90;;;;;;5048655;28;20025;-55
2022/05/16 05:06:41;;;;;;;7.00;5.22;;;17.00;99.90;;;;;;5049405;28;20040;-57
2022/05/16 05:09:08;;;;;;;7.95;5.15;;;16.90;99.90;;;;;;5053570;28;20028;-55
2022/05/16 05:14:33;;;;;;;5.10;4.60;;;16.80;99.90;;;;;;5052040;28;20056;-53
2022/05/16 05:17:00;;;;;;;7.57;4.80;;;17.00;99.90;;;;;;5056219;28;20029;-54
2022/05/16 05:19:26;;;;;;;5.93;4.70;;;17.50;99.90;;;;;;5046941;28;20035;-52
2022/05/16 05:21:52;;;;;;;7.05;5.18;;;17.50;99.90;;;;;;5048294;28;20021;-51
2022/05/16 05:24:18;;;;;;;6.88;5.10;;;17.70;99.90;;;;;;5058497;28;20416;-57
2022/05/16 05:26:43;;;;;;;8.13;5.10;;;17.80;99.90;;;;;;5035835;28;20086;-53
2022/05/16 05:29:11;;;;;;;9.75;5.30;;;17.70;99.90;;;;;;5040206;28;20144;-55
2022/05/16 05:31:37;;;;;;;10.15;4.97;;;17.70;99.90;;;;;;5038411;28;20029;-53
2022/05/16 05:34:03;;;;;;;9.35;4.45;;;18.00;99.90;;;;;;5037613;28;20048;-52
2022/05/16 05:36:31;;;;;;;7.43;4.43;;;17.70;99.90;;;;;;5035830;28;20030;-54
2022/05/16 05:38:58;;;;;;;6.63;4.47;;;17.90;99.90;;;;;;5038554;28;20092;-55
2022/05/16 05:41:24;;;;;;;9.63;5.43;;;18.10;99.90;;;;;;5037637;28;20069;-56
2022/05/16 05:43:50;;;;;;;7.93;5.28;;;18.10;99.90;;;;;;5039643;28;20039;-54
2022/05/16 05:46:17;;;;;;;8.70;5.25;;;18.30;99.90;;;;;;5039703;28;20448;-53
2022/05/16 05:48:43;;;;;;;7.35;5.10;;;18.50;99.90;;;;;;5040236;28;20121;-56
2022/05/16 05:51:09;;;;;;;10.85;6.25;;;18.80;99.90;;;;;;5038228;28;20041;-52
2022/05/16 05:53:37;;;;;;;8.80;6.68;;;19.00;99.90;;;;;;5038012;28;20091;-53
2022/05/16 05:56:04;;;;;;;13.00;7.78;;;19.40;99.90;;;;;;5037885;28;20370;-51
2022/05/16 05:58:32;;;;;;;16.83;8.63;;;19.70;99.90;;;;;;5050497;28;20033;-53
2022/05/16 06:00:59;;;;;;;20.80;8.77;;;19.90;99.90;;;;;;5039058;28;20474;-52
2022/05/16 06:03:25;;;;;;;16.70;8.55;;;20.00;99.90;;;;;;5036797;28;20029;-52
2022/05/16 06:05:51;;;;;;;14.07;7.93;;;;;;;;;;5036769;28;20039;-57
2022/05/16 06:08:17;;;;;;;15.98;7.82;;;20.30;99.90;;;;;;5037902;28;20025;-53
2022/05/16 06:10:43;;;;;;;12.45;7.40;;;20.40;99.90;;;;;;5037605;28;20488;-55
2022/05/16 06:13:09;;;;;;;11.52;6.35;;;20.50;99.90;;;;;;5033104;28;20073;-55
2022/05/16 06:15:35;;;;;;;11.38;6.82;;;20.60;99.90;;;;;;5037657;28;20028;-56
2022/05/16 06:18:01;;;;;;;10.65;5.95;;;20.90;99.90;;;;;;5035969;28;20037;-55
2022/05/16 06:20:27;;;;;;;9.85;5.70;;;21.00;99.90;;;;;;5038684;28;20021;-56
2022/05/16 06:22:54;;;;;;;8.25;5.82;;;21.20;99.90;;;;;;5035324;28;20056;-54
2022/05/16 06:25:39;;;;;;;8.70;5.43;;;21.20;99.90;;;;;;5039074;28;20041;-56
2022/05/16 06:28:13;;;;;;;7.38;6.18;;;21.20;99.90;;;;;;5033755;28;20107;-55
2022/05/16 06:30:42;;;;;;;13.02;6.05;;;21.20;99.90;;;;;;5035588;28;20061;-57
2022/05/16 06:33:09;;;;;;;9.55;5.35;;;21.40;99.90;;;;;;5036148;28;20041;-55
2022/05/16 06:35:36;;;;;;;10.90;5.50;;;21.50;99.90;;;;;;5037545;28;20090;-56
2022/05/16 06:38:09;;;;;;;10.82;5.18;;;21.60;99.90;;;;;;5036036;28;20021;-53
2022/05/16 06:40:38;;;;;;;9.32;4.57;;;21.90;99.90;;;;;;5051364;28;20037;-54
2022/05/16 06:43:04;;;;;;;6.35;4.20;;;22.00;99.90;;;;;;5032510;28;20025;-52
2022/05/16 06:45:31;;;;;;;9.45;4.05;;;22.10;99.90;;;;;;5036580;28;20064;-55
2022/05/16 06:47:57;;;;;;;9.98;4.00;;;22.20;99.90;;;;;;5035710;28;20033;-51
2022/05/16 06:50:23;;;;;;;6.93;3.63;;;22.40;99.90;;;;;;5038484;28;20041;-55
2022/05/16 06:52:49;;;;;;;7.13;3.47;;;22.50;99.90;;;;;;5037251;28;20396;-56
2022/05/16 06:55:16;;;;;;;10.15;3.40;;;;;;;;;;5035650;28;20029;-54
2022/05/16 06:57:42;;;;;;;6.93;2.63;;;23.00;99.90;;;;;;5052928;28;20134;-53
2022/05/16 07:00:09;;;;;;;6.75;2.50;;;;;;;;;;5037632;28;20071;-55
2022/05/16 07:02:35;;;;;;;7.60;2.28;;;;;;;;;;5032183;28;20033;-55
2022/05/16 07:05:02;;;;;;;6.50;2.55;;;;;;;;;;5038057;28;20392;-55
2022/05/16 07:07:28;;;;;;;9.05;3.45;;;23.70;99.90;;;;;;5038404;28;20112;-58
2022/05/16 07:09:54;;;;;;;9.55;2.88;;;24.00;99.90;;;;;;5036458;28;20449;-58
2022/05/16 07:12:20;;;;;;;6.63;2.92;;;24.20;99.90;;;;;;5034088;28;20119;-55
2022/05/16 07:14:47;;;;;;;6.82;2.60;;;24.40;99.90;;;;;;5051249;28;20041;-55
2022/05/16 07:17:13;;;;;;;6.25;3.05;;;24.30;99.90;;;;;;5038005;28;20055;-57
2022/05/16 07:19:39;;;;;;;12.90;4.18;;;24.50;99.90;;;;;;5039230;28;20099;-56
2022/05/16 07:22:09;;;;;;;17.17;6.60;;;;;;;;;;5035425;28;20060;-53
2022/05/16 07:24:35;;;;;;;9.50;4.47;;;24.90;99.90;;;;;;5037117;28;20400;-56
2022/05/16 07:29:45;;;;;;;7.47;3.20;;;25.20;99.90;;;;;;5033543;28;20083;-56
2022/05/16 07:32:12;;;;;;;6.85;3.55;;;;;;;;;;5047062;28;20041;-51
2022/05/16 07:34:39;;;;;;;9.35;2.95;;;;;;;;;;5035625;28;20045;-53
2022/05/16 07:37:06;;;;;;;9.48;3.10;;;;;;;;;;5037750;28;20035;-58
2022/05/16 07:39:34;;;;;;;9.50;2.78;;;25.50;99.90;;;;;;5035183;28;20076;-53
2022/05/16 07:42:01;;;;;;;7.50;4.10;;;;;;;;;;5032197;28;20437;-54
2022/05/16 07:44:27;;;;;;;6.10;3.50;;;;;;;;;;5036310;28;20043;-58
2022/05/16 07:46:53;;;;;;;4.70;3.20;;;25.90;99.90;;;;;;5033498;28;20033;-55
2022/05/16 07:49:20;;;;;;;6.88;3.33;;;;;;;;;;5036386;28;20036;-55
2022/05/16 07:51:46;;;;;;;7.47;3.03;;;;;;;;;;5034042;28;20025;-54
2022/05/16 07:54:12;;;;;;;4.55;3.00;;;;;;;;;;5035618;28;20044;-52
2022/05/16 07:56:39;;;;;;;7.28;3.08;;;;;;;;;;5038304;28;20041;-53
2022/05/16 07:59:06;;;;;;;5.25;2.90;;;;;;;;;;5032541;28;20041;-54
2022/05/16 08:01:32;;;;;;;5.43;3.05;;;;;;;;;;5037206;28;20052;-56
2022/05/16 08:03:58;;;;;;;6.97;2.83;;;;;;;;;;5033207;28;20025;-58
2022/05/16 08:06:27;;;;;;;10.20;3.33;;;;;;;;;;5033655;28;20033;-53
2022/05/16 08:11:38;;;;;;;4.60;2.15;;;27.30;99.20;;;;;;5035366;28;20056;-56
2022/05/16 08:14:03;;;;;;;3.85;2.10;;;27.30;94.80;;;;;;5033894;28;20029;-52
2022/05/16 08:16:30;;;;;;;7.85;2.92;;;;;;;;;;5049731;28;20088;-52
2022/05/16 08:18:56;;;;;;;5.10;2.47;;;;;;;;;;5037097;28;20025;-55
2022/05/16 08:21:22;;;;;;;5.90;2.90;;;;;;;;;;5033012;28;20034;-56
2022/05/16 08:23:48;;;;;;;6.22;2.90;;;27.50;99.90;;;;;;5034073;28;20052;-51
2022/05/16 08:26:13;;;;;;;4.30;2.20;;;27.70;99.90;;;;;;5033602;28;20029;-54
2022/05/16 08:28:39;;;;;;;4.40;2.22;;;27.70;93.30;;;;;;5018109;28;20037;-54
2022/05/16 08:31:05;;;;;;;4.32;2.50;;;27.50;93.00;;;;;;5035989;28;20433;-53
2022/05/16 08:33:33;;;;;;;5.63;2.40;;;;;;;;;;5048126;28;20061;-53
2022/05/16 08:41:29;;;;;;;6.22;2.85;;;;;;;;;;5034422;28;20063;-53
2022/05/16 08:43:58;;;;;;;6.63;2.53;;;28.40;99.90;;;;;;5034974;28;20029;-57
2022/05/16 08:46:32;;;;;;;4.78;2.35;;;28.20;92.30;;;;;;5032959;28;20026;-54
2022/05/16 08:49:02;;;;;;;6.95;2.38;;;;;;;;;;5048667;28;20041;-54
2022/05/16 08:51:33;;;;;;;6.28;2.42;;;;;;;;;;5032638;28;20033;-56
2022/05/16 08:54:10;;;;;;;7.57;2.58;;;;;;;;;;5034547;28;20508;-55
2022/05/16 08:56:38;;;;;;;7.53;2.33;;;;;;;;;;5036332;28;20029;-57
2022/05/16 08:59:14;;;;;;;5.35;2.47;;;;;;;;;;5035500;28;20522;-58
2022/05/16 09:01:52;;;;;;;6.43;3.03;;;;;;;;;;5038788;28;20053;-53
2022/05/16 09:04:24;;;;;;;5.10;2.33;;;;;;;;;;5036477;28;20483;-53
2022/05/16 09:06:50;;;;;;;4.72;2.33;;;;;;;;;;5039315;28;20114;-55
2022/05/16 09:09:19;;;;;;;6.80;2.67;;;29.90;90.50;;;;;;5038855;28;20056;-57
2022/05/16 09:11:48;;;;;;;5.82;2.78;;;;;;;;;;5037790;28;20040;-56
2022/05/16 09:14:20;;;;;;;5.97;2.30;;;;;;;;;;5037648;28;20047;-56
2022/05/16 09:16:56;;;;;;;4.47;1.90;;;;;;;;;;5036282;28;20033;-54
2022/05/16 09:19:40;;;;;;;4.05;1.67;;;;;;;;;;5038310;28;20037;-54
2022/05/16 09:22:11;;;;;;;5.15;1.85;;;;;;;;;;5043640;28;20037;-53
2022/05/16 09:24:42;;;;;;;6.25;1.98;;;;;;;;;;5039335;28;20057;-53
2022/05/16 09:27:10;;;;;;;9.57;3.55;;;;;;;;;;5038262;28;20396;-56
2022/05/16 09:29:39;;;;;;;4.78;1.80;;;31.10;99.90;;;;;;5055657;28;20037;-58
2022/05/16 09:32:22;;;;;;;7.47;3.28;;;;;;;;;;5036893;28;20060;-55
2022/05/16 09:34:47;;;;;;;3.13;1.73;;;29.60;96.40;;;;;;5035939;28;20033;-51
2022/05/16 09:37:13;;;;;;;3.47;1.65;;;;;;;;;;5037565;28;20037;-56
2022/05/16 09:39:40;;;;;;;4.82;1.58;;;;;;;;;;5040346;28;20120;-55
2022/05/16 09:42:12;;;;;;;4.57;1.77;;;;;;;;;;5043157;28;20408;-57
2022/05/16 09:45:07;;;;;;;2.92;1.70;;;;;;;;;;5038516;28;20025;-53
2022/05/16 09:47:34;;;;;;;4.05;2.10;;;;;;;;;;5042702;28;20124;-52
2022/05/16 09:50:03;;;;;;;4.80;1.98;;;;;;;;;;5043426;28;20037;-52
2022/05/16 09:52:32;;;;;;;5.75;2.10;;;;;;;;;;5040111;28;20037;-56
2022/05/16 09:55:03;;;;;;;3.70;1.77;;;;;;;;;;5039351;28;20036;-58
2022/05/16 09:57:32;;;;;;;5.93;2.97;;;;;;;;;;5044392;28;20033;-54
2022/05/16 10:00:15;;;;;;;7.68;1.90;;;;;;;;;;5037052;28;20033;-53
2022/05/16 10:02:42;;;;;;;5.47;1.60;;;;;;;;;;5039034;28;20037;-52
2022/05/16 10:05:29;;;;;;;4.03;1.73;;;;;;;;;;5039385;28;20381;-57
2022/05/16 10:08:06;;;;;;;6.93;2.00;;;;;;;;;;5041891;28;20041;-55
2022/05/16 10:10:37;;;;;;;6.10;1.92;;;;;;;;;;5038300;28;20041;-56
2022/05/16 10:13:04;;;;;;;7.60;2.25;;;31.10;79.60;;;;;;5046151;28;20041;-54
2022/05/16 10:15:31;;;;;;;4.07;1.77;;;;;;;;;;4999726;28;20030;-55
2022/05/16 10:17:59;;;;;;;5.10;2.42;;;;;;;;;;5034717;28;20049;-58
2022/05/16 10:20:46;;;;;;;5.53;1.83;;;;;;;;;;5042783;28;20029;-54
2022/05/16 10:23:33;;;;;;;4.05;1.85;;;;;;;;;;5008471;28;20041;-56
2022/05/16 10:26:23;;;;;;;5.22;1.90;;;32.40;76.80;;;;;;5035953;28;20032;-53
2022/05/16 10:29:06;;;;;;;5.32;2.17;;;32.30;77.80;;;;;;5037373;28;20033;-56
2022/05/16 10:34:55;;;;;;;3.13;1.90;;;32.10;76.70;;;;;;5037157;28;20051;-54
2022/05/16 10:37:23;;;;;;;7.05;2.05;;;32.20;76.30;;;;;;5039875;28;20147;-57
2022/05/16 10:40:11;;;;;;;7.18;2.30;;;32.70;76.20;;;;;;5028708;28;20112;-53
2022/05/16 10:42:46;;;;;;;3.33;1.70;;;33.10;76.80;;;;;;5036005;28;20049;-58
2022/05/16 10:45:18;;;;;;;6.47;2.55;;;33.30;76.00;;;;;;5015509;28;20136;-56
2022/05/16 10:48:09;;;;;;;3.97;1.88;;;33.50;82.40;;;;;;5033704;28;20047;-58
2022/05/16 10:51:09;;;;;;;3.97;1.80;;;33.50;73.30;;;;;;5033110;28;20028;-57
2022/05/16 10:53:50;;;;;;;5.53;2.20;;;33.60;75.00;;;;;;5033163;28;20068;-54
2022/05/16 10:56:30;;;;;;;6.50;1.92;;;33.20;74.40;;;;;;5034048;28;20040;-53
2022/05/16 10:59:10;;;;;;;4.85;2.10;;;32.40;73.60;;;;;;5033449;28;20096;-55
2022/05/16 11:01:45;;;;;;;7.55;2.08;;;31.90;73.50;;;;;;5033165;28;20033;-53
2022/05/16 11:04:38;;;;;;;3.58;1.80;;;32.50;74.50;;;;;;5032003;28;20135;-55
2022/05/16 11:07:31;;;;;;;3.28;2.00;;;33.20;74.60;;;;;;5034687;28;20497;-55
2022/05/16 11:10:18;;;;;;;4.43;2.15;;;33.50;73.60;;;;;;5031122;28;20045;-53
2022/05/16 11:13:06;;;;;;;2.55;1.73;;;33.30;73.40;;;;;;5033255;28;20530;-56
2022/05/16 11:15:49;;;;;;;5.20;2.00;;;32.80;72.80;;;;;;5032644;28;20059;-56
2022/05/16 11:18:41;;;;;;;3.65;1.77;;;32.80;73.30;;;;;;5033195;28;20068;-55
2022/05/16 11:21:20;;;;;;;6.07;2.22;;;33.50;73.60;;;;;;5069600;28;20103;-55
2022/05/16 11:24:05;;;;;;;4.22;2.20;;;33.70;72.80;;;;;;5034388;28;20055;-57
2022/05/16 11:26:46;;;;;;;5.25;2.30;;;33.60;72.80;;;;;;5035531;28;20107;-55
2022/05/16 11:29:23;;;;;;;4.05;2.22;;;33.20;71.90;;;;;;5034776;28;20380;-54
2022/05/16 11:31:55;;;;;;;3.08;2.20;;;34.00;74.10;;;;;;5042114;28;20470;-54
2022/05/16 11:34:29;;;;;;;5.82;2.13;;;34.00;71.50;;;;;;5036278;28;20540;-55
2022/05/16 11:37:16;;;;;;;3.80;2.13;;;34.20;72.80;;;;;;5034490;28;20036;-54
2022/05/16 11:39:55;;;;;;;5.72;2.00;;;34.30;72.40;;;;;;5047746;28;20045;-57
2022/05/16 11:42:33;;;;;;;5.00;2.13;;;34.40;72.10;;;;;;5036899;28;20037;-57
2022/05/16 11:45:21;;;;;;;9.93;2.83;;;34.70;72.80;;;;;;5033539;28;20491;-57
2022/05/16 11:48:20;;;;;;;10.95;8.57;;;35.00;72.70;;;;;;5034700;28;20112;-58
2022/05/16 11:51:08;;;;;;;5.15;3.40;;;34.90;71.50;;;;;;5032971;28;20393;-56
2022/05/16 11:53:44;;;;;;;5.78;2.30;;;34.40;71.50;;;;;;5035233;28;20033;-54
2022/05/16 12:02:34;;;;;;;6.40;2.20;;;34.20;71.90;;;;;;5035148;28;20108;-53
2022/05/16 12:05:10;;;;;;;3.45;2.10;;;34.10;70.70;;;;;;5039756;28;20036;-56
2022/05/16 12:07:36;;;;;;;5.70;2.22;;;34.60;71.90;;;;;;5036674;28;20025;-51
2022/05/16 12:10:10;;;;;;;5.03;2.33;;;34.80;71.80;;;;;;5035879;28;20029;-54
2022/05/16 12:12:42;;;;;;;7.88;2.67;;;35.20;71.00;;;;;;5033392;28;20104;-54
2022/05/16 12:15:18;;;;;;;3.20;2.40;;;35.50;70.00;;;;;;5034771;28;20095;-54
2022/05/16 12:18:05;;;;;;;4.35;1.95;;;35.70;70.40;;;;;;5034066;28;20041;-56
2022/05/16 12:20:39;;;;;;;3.65;2.38;;;35.90;71.20;;;;;;5005680;28;20056;-55
2022/05/16 12:23:07;;;;;;;5.40;2.25;;;35.50;70.00;;;;;;5029784;28;20060;-55
2022/05/16 12:25:35;;;;;;;4.82;2.45;;;34.70;70.00;;;;;;5035050;28;20022;-54
2022/05/16 12:28:13;;;;;;;4.40;2.63;;;35.20;71.20;;;;;;5034257;28;20034;-56
2022/05/16 12:30:39;;;;;;;3.92;1.80;;;;;;;;;;5036817;28;20032;-54
2022/05/16 12:33:25;;;;;;;2.72;2.10;;;33.90;92.80;;;;;;5035680;28;20128;-55
2022/05/16 12:35:53;;;;;;;5.03;2.05;;;34.20;74.70;;;;;;5029590;28;20040;-55
2022/05/16 12:38:21;;;;;;;5.15;2.60;;;;;;;;;;5042370;28;20037;-53
2022/05/16 12:40:50;;;;;;;7.00;2.33;;;34.60;69.20;;;;;;5036414;28;20030;-56
2022/05/16 12:43:57;;;;;;;4.72;2.20;;;34.80;69.50;;;;;;5037834;28;20377;-52
2022/05/16 12:47:00;;;;;;;11.15;6.65;;;35.00;74.30;;;;;;5039167;28;20120;-57
2022/05/16 12:49:32;;;;;;;6.47;4.18;;;35.00;82.40;;;;;;5052588;28;20043;-51
2022/05/16 12:51:59;;;;;;;9.77;6.03;;;34.70;92.10;;;;;;5038669;28;20033;-55
2022/05/16 12:54:44;;;;;;;8.27;4.65;;;;;;;;;;5038394;28;20481;-55
2022/05/16 12:57:23;;;;;;;12.25;8.52;;;35.20;70.50;;;;;;5034361;28;20033;-55
2022/05/16 13:00:16;;;;;;;25.65;17.20;;;34.60;69.20;;;;;;5034531;28;20040;-56
2022/05/16 13:02:48;;;;;;;10.77;8.15;;;34.90;69.60;;;;;;5039604;28;20069;-56
2022/05/16 13:05:32;;;;;;;17.58;13.60;;;34.40;69.40;;;;;;5041504;28;20076;-54
2022/05/16 13:08:17;;;;;;;7.68;3.80;;;;;;;;;;5037708;28;20033;-54
2022/05/16 13:11:15;;;;;;;7.07;4.28;;;35.20;97.80;;;;;;5040390;28;20503;-55
2022/05/16 13:13:56;;;;;;;6.03;2.20;;;;;;;;;;5013230;28;20679;-54
2022/05/16 13:16:25;;;;;;;4.57;2.15;;;;;;;;;;5014142;28;20046;-59
2022/05/16 13:18:56;;;;;;;7.25;2.40;;;;;;;;;;5013579;28;20151;-53
2022/05/16 13:21:23;;;;;;;3.92;2.13;;;;;;;;;;5013426;28;20026;-52
2022/05/16 13:23:50;;;;;;;4.25;2.30;;;35.10;68.70;;;;;;5010807;28;20046;-57
2022/05/16 13:31:48;;;;;;;3.10;2.28;;;;;;;;;;5013214;28;20103;-52
2022/05/16 13:34:36;;;;;;;4.22;2.42;;;33.30;89.70;;;;;;5008176;28;20038;-57
2022/05/16 13:37:06;;;;;;;5.90;2.20;;;;;;;;;;5014966;28;20044;-54
2022/05/16 13:40:06;;;;;;;7.82;3.80;;;31.50;68.60;;;;;;5012940;28;20123;-56
2022/05/16 13:42:34;;;;;;;4.95;2.80;;;34.20;70.80;;;;;;4991770;28;20034;-57
2022/05/16 13:45:00;;;;;;;6.28;2.25;;;34.90;70.20;;;;;;4993473;28;20039;-55
2022/05/16 13:47:29;;;;;;;5.18;2.40;;;35.20;69.20;;;;;;4993241;28;20030;-55
2022/05/16 13:49:55;;;;;;;4.68;3.10;;;35.20;70.00;;;;;;4996773;28;20073;-53
2022/05/16 13:52:25;;;;;;;6.45;2.90;;;35.40;85.30;;;;;;5032137;28;20471;-57
2022/05/16 13:54:54;;;;;;;5.60;2.42;;;35.40;83.80;;;;;;5040101;28;20045;-53
2022/05/16 13:57:23;;;;;;;4.10;2.65;;;34.90;84.00;;;;;;5033025;28;20041;-53
2022/05/16 14:00:14;;;;;;;3.80;2.38;;;34.20;69.90;;;;;;5026363;28;20444;-53
2022/05/16 14:02:42;;;;;;;3.55;2.10;;;33.70;69.50;;;;;;5032141;28;20044;-51
2022/05/16 14:05:22;;;;;;;5.13;3.17;;;34.20;70.80;;;;;;5038759;28;20037;-53
2022/05/16 14:07:49;;;;;;;3.42;2.15;;;34.40;70.40;;;;;;5032900;28;20052;-58
2022/05/16 14:10:17;;;;;;;4.55;2.13;;;34.70;69.20;;;;;;5033789;28;20033;-57
2022/05/16 14:12:46;;;;;;;7.93;2.10;;;34.90;70.10;;;;;;5034016;28;20041;-55
2022/05/16 14:15:33;;;;;;;5.40;2.45;;;35.00;70.20;;;;;;5036490;28;20034;-56
2022/05/16 14:18:10;;;;;;;4.53;2.78;;;35.00;69.30;;;;;;5040361;28;20025;-53
2022/05/16 14:20:38;;;;;;;5.97;2.50;;;35.20;69.40;;;;;;5038000;28;20128;-56
2022/05/16 14:23:13;;;;;;;3.33;2.08;;;;;;;;;;5027751;28;20053;-56